createdAt,value
2018-09-18T00:00:02.853Z,15.86
2018-09-18T00:02:31.167Z,15.89
2018-09-18T00:04:59.474Z,15.88
2018-09-18T00:07:27.777Z,15.85
2018-09-18T00:09:56.085Z,15.81
2018-09-18T00:12:24.386Z,15.80
2018-09-18T00:14:52.682Z,15.88
2018-09-18T00:17:21.000Z,15.86
2018-09-18T00:19:49.274Z,15.84
2018-09-18T00:22:17.566Z,15.82
2018-09-18T00:24:45.877Z,15.75
2018-09-18T00:27:14.178Z,15.82
2018-09-18T00:29:42.502Z,15.91
2018-09-18T00:32:10.795Z,15.89
2018-09-18T00:34:39.085Z,15.84
2018-09-18T00:37:07.385Z,15.80
2018-09-18T00:39:35.681Z,15.76
2018-09-18T00:42:03.985Z,15.81
2018-09-18T00:44:32.285Z,15.67
2018-09-18T00:47:00.578Z,15.75
2018-09-18T00:49:28.882Z,15.68
2018-09-18T00:51:57.177Z,15.65
2018-09-18T00:54:25.486Z,15.66
2018-09-18T00:56:53.793Z,15.61
2018-09-18T00:59:22.101Z,15.56
2018-09-18T01:01:50.393Z,15.63
2018-09-18T01:04:18.701Z,15.63
2018-09-18T01:06:47.006Z,15.64
2018-09-18T01:09:15.306Z,15.60
2018-09-18T01:11:43.610Z,15.55
2018-09-18T01:14:11.910Z,15.63
2018-09-18T01:16:40.213Z,15.60
2018-09-18T01:19:08.523Z,15.50
2018-09-18T01:21:36.829Z,15.42
2018-09-18T01:24:05.130Z,15.52
2018-09-18T01:26:33.489Z,15.47
2018-09-18T01:29:01.785Z,15.42
2018-09-18T01:31:30.081Z,15.46
2018-09-18T01:33:58.386Z,15.42
2018-09-18T01:36:26.677Z,15.36
2018-09-18T01:38:54.984Z,15.38
2018-09-18T01:41:23.273Z,15.33
2018-09-18T01:43:51.661Z,15.36
2018-09-18T01:46:19.882Z,15.39
2018-09-18T01:48:48.182Z,15.43
2018-09-18T01:51:16.490Z,15.40
2018-09-18T01:53:44.794Z,15.39
2018-09-18T01:56:13.109Z,15.39
2018-09-18T01:58:41.418Z,15.39
2018-09-18T02:01:09.725Z,15.37
2018-09-18T02:03:38.026Z,15.35
2018-09-18T02:06:06.350Z,15.44
2018-09-18T02:08:34.658Z,15.27
2018-09-18T02:11:02.962Z,15.36
2018-09-18T02:13:31.272Z,15.35
2018-09-18T02:15:59.565Z,15.39
2018-09-18T02:18:27.853Z,15.42
2018-09-18T02:20:56.153Z,15.36
2018-09-18T02:23:24.454Z,15.27
2018-09-18T02:25:52.765Z,15.22
2018-09-18T02:28:21.061Z,15.18
2018-09-18T02:30:49.375Z,15.18
2018-09-18T02:33:17.663Z,15.21
2018-09-18T02:35:45.980Z,15.10
2018-09-18T02:38:14.274Z,15.02
2018-09-18T02:40:42.585Z,14.98
2018-09-18T02:43:10.897Z,14.98
2018-09-18T02:45:39.189Z,14.96
2018-09-18T02:48:07.505Z,14.91
2018-09-18T02:50:35.798Z,14.85
2018-09-18T02:53:04.102Z,14.89
2018-09-18T02:55:32.405Z,14.94
2018-09-18T02:58:00.705Z,14.86
2018-09-18T03:00:29.013Z,14.86
2018-09-18T03:02:57.310Z,14.98
2018-09-18T03:05:25.617Z,14.95
2018-09-18T03:07:53.932Z,14.93
2018-09-18T03:10:22.218Z,14.90
2018-09-18T03:12:50.529Z,14.92
2018-09-18T03:15:18.814Z,14.92
2018-09-18T03:17:47.134Z,14.91
2018-09-18T03:20:15.425Z,14.96
2018-09-18T03:22:43.776Z,14.87
2018-09-18T03:25:12.169Z,14.82
2018-09-18T03:27:40.450Z,14.91
2018-09-18T03:30:08.774Z,14.93
2018-09-18T03:32:37.069Z,14.82
2018-09-18T03:35:05.386Z,14.71
2018-09-18T03:37:33.697Z,14.74
2018-09-18T03:40:02.003Z,14.69
2018-09-18T03:42:30.351Z,14.63
2018-09-18T03:44:59.255Z,14.56
2018-09-18T03:47:27.570Z,14.59
2018-09-18T03:49:55.885Z,14.61
2018-09-18T03:52:24.189Z,14.58
2018-09-18T03:54:52.505Z,14.65
2018-09-18T03:57:20.805Z,14.45
2018-09-18T03:59:49.127Z,14.48
2018-09-18T04:02:17.438Z,14.47
2018-09-18T04:04:45.745Z,14.49
2018-09-18T04:07:14.071Z,14.47
2018-09-18T04:09:42.385Z,14.49
2018-09-18T04:12:10.694Z,14.58
2018-09-18T04:14:39.010Z,14.64
2018-09-18T04:17:07.350Z,14.62
2018-09-18T04:19:35.674Z,14.61
2018-09-18T04:22:03.978Z,14.61
2018-09-18T04:24:32.298Z,14.52
2018-09-18T04:27:00.611Z,14.47
2018-09-18T04:29:28.909Z,14.39
2018-09-18T04:31:57.237Z,14.41
2018-09-18T04:34:25.537Z,14.36
2018-09-18T04:36:53.842Z,14.31
2018-09-18T04:39:22.155Z,14.34
2018-09-18T04:41:50.462Z,14.33
2018-09-18T04:44:18.784Z,14.35
2018-09-18T04:46:47.082Z,14.34
2018-09-18T04:49:15.400Z,14.33
2018-09-18T04:51:43.717Z,14.37
2018-09-18T04:54:12.025Z,14.48
2018-09-18T04:56:40.346Z,14.47
2018-09-18T04:59:08.650Z,14.40
2018-09-18T05:01:36.955Z,14.50
2018-09-18T05:04:05.265Z,14.52
2018-09-18T05:06:33.570Z,14.48
2018-09-18T05:09:01.897Z,14.48
2018-09-18T05:11:30.201Z,14.41
2018-09-18T05:13:58.573Z,14.51
2018-09-18T05:16:26.865Z,14.51
2018-09-18T05:18:55.166Z,14.59
2018-09-18T05:21:23.486Z,14.53
2018-09-18T05:23:51.797Z,14.58
2018-09-18T05:26:20.109Z,14.60
2018-09-18T05:28:48.422Z,14.58
2018-09-18T05:31:16.742Z,14.65
2018-09-18T05:33:45.098Z,14.63
2018-09-18T05:36:15.593Z,14.72
2018-09-18T05:38:43.897Z,14.75
2018-09-18T05:41:12.213Z,14.76
2018-09-18T05:43:40.518Z,14.89
2018-09-18T05:46:08.857Z,14.90
2018-09-18T05:48:37.174Z,15.02
2018-09-18T05:51:05.469Z,15.13
2018-09-18T05:53:33.779Z,15.13
2018-09-18T05:56:02.114Z,15.24
2018-09-18T05:58:30.390Z,15.24
2018-09-18T06:00:58.689Z,15.36
2018-09-18T06:03:26.988Z,15.46
2018-09-18T06:05:55.298Z,15.56
2018-09-18T06:08:23.594Z,15.64
2018-09-18T06:10:51.909Z,15.68
2018-09-18T06:13:20.217Z,15.80
2018-09-18T06:15:48.501Z,15.84
2018-09-18T06:18:16.806Z,15.89
2018-09-18T06:20:45.102Z,15.94
2018-09-18T06:23:13.421Z,16.06
2018-09-18T06:25:42.833Z,16.16
2018-09-18T06:28:11.151Z,16.20
2018-09-18T06:30:39.434Z,16.31
2018-09-18T06:33:07.789Z,16.27
2018-09-18T06:35:36.110Z,16.32
2018-09-18T06:38:04.503Z,16.28
2018-09-18T06:40:32.845Z,16.44
2018-09-18T06:43:01.137Z,16.50
2018-09-18T06:45:29.433Z,16.55
2018-09-18T06:47:57.757Z,16.57
2018-09-18T06:50:26.047Z,16.52
2018-09-18T06:52:54.342Z,16.58
2018-09-18T06:55:22.641Z,16.61
2018-09-18T06:57:50.937Z,16.61
2018-09-18T07:00:19.266Z,16.82
2018-09-18T07:02:47.557Z,16.66
2018-09-18T07:05:15.900Z,16.97
2018-09-18T07:07:44.201Z,17.06
2018-09-18T07:10:12.505Z,17.17
2018-09-18T07:12:40.826Z,17.25
2018-09-18T07:15:09.119Z,17.32
2018-09-18T07:17:37.412Z,17.37
2018-09-18T07:20:05.722Z,17.38
2018-09-18T07:22:34.021Z,17.43
2018-09-18T07:25:02.455Z,17.49
2018-09-18T07:27:30.666Z,17.62
2018-09-18T07:29:58.965Z,17.69
2018-09-18T07:32:27.270Z,17.70
2018-09-18T07:34:55.567Z,17.79
2018-09-18T07:37:23.895Z,17.88
2018-09-18T07:39:52.216Z,18.04
2018-09-18T07:42:20.590Z,18.11
2018-09-18T07:44:48.901Z,18.30
2018-09-18T07:47:17.194Z,18.31
2018-09-18T07:49:45.506Z,18.34
2018-09-18T07:52:13.867Z,18.50
2018-09-18T07:54:42.110Z,18.66
2018-09-18T07:57:10.416Z,18.75
2018-09-18T07:59:38.715Z,18.73
2018-09-18T08:02:07.028Z,18.95
2018-09-18T08:04:35.322Z,18.93
2018-09-18T08:07:03.619Z,19.15
2018-09-18T08:09:31.926Z,19.24
2018-09-18T08:12:00.217Z,19.42
2018-09-18T08:14:28.531Z,19.50
2018-09-18T08:16:56.827Z,19.63
2018-09-18T08:19:25.257Z,19.74
2018-09-18T08:21:53.484Z,19.84
2018-09-18T08:24:21.746Z,19.90
2018-09-18T08:26:50.085Z,20.04
2018-09-18T08:29:18.382Z,20.18
2018-09-18T08:31:46.677Z,20.30
2018-09-18T08:34:15.012Z,20.35
2018-09-18T08:36:43.309Z,20.47
2018-09-18T08:39:11.627Z,20.55
2018-09-18T08:41:39.953Z,20.77
2018-09-18T08:44:12.141Z,20.88
2018-09-18T08:46:40.422Z,20.92
2018-09-18T08:49:08.735Z,20.97
2018-09-18T08:51:37.099Z,21.11
2018-09-18T08:54:05.386Z,21.17
2018-09-18T08:56:33.694Z,21.25
2018-09-18T08:59:02.008Z,21.32
2018-09-18T09:01:30.314Z,21.54
2018-09-18T09:03:58.688Z,21.94
2018-09-18T09:06:26.980Z,21.92
2018-09-18T09:08:55.524Z,22.06
2018-09-18T09:11:23.640Z,22.13
2018-09-18T09:13:51.927Z,22.07
2018-09-18T09:16:20.243Z,22.34
2018-09-18T09:18:48.550Z,22.46
2018-09-18T09:21:16.929Z,22.45
2018-09-18T09:23:45.173Z,22.84
2018-09-18T09:26:13.475Z,23.02
2018-09-18T09:28:41.817Z,23.23
2018-09-18T09:31:10.091Z,23.31
2018-09-18T09:33:38.382Z,23.32
2018-09-18T09:36:06.737Z,23.40
2018-09-18T09:38:35.040Z,23.53
2018-09-18T09:41:03.346Z,23.66
2018-09-18T09:43:31.674Z,23.90
2018-09-18T09:46:00.012Z,24.19
2018-09-18T09:48:28.369Z,24.15
2018-09-18T09:50:56.684Z,24.31
2018-09-18T09:53:24.975Z,24.55
2018-09-18T09:55:53.270Z,24.63
2018-09-18T09:58:21.582Z,24.63
2018-09-18T10:00:49.909Z,24.92
2018-09-18T10:03:18.204Z,25.02
2018-09-18T10:05:46.528Z,25.08
2018-09-18T10:08:14.827Z,25.18
2018-09-18T10:10:43.272Z,25.53
2018-09-18T10:13:11.459Z,25.51
2018-09-18T10:15:39.764Z,25.46
2018-09-18T10:18:08.087Z,25.66
2018-09-18T10:20:36.374Z,25.60
2018-09-18T10:23:04.671Z,25.66
2018-09-18T10:25:32.970Z,25.86
2018-09-18T10:28:01.278Z,25.96
2018-09-18T10:30:29.593Z,26.04
2018-09-18T10:32:57.894Z,26.10
2018-09-18T10:35:26.216Z,26.19
2018-09-18T10:37:54.518Z,26.24
2018-09-18T10:40:22.791Z,26.05
2018-09-18T10:42:51.172Z,26.21
2018-09-18T10:45:19.422Z,26.70
2018-09-18T10:47:47.711Z,26.82
2018-09-18T10:50:16.019Z,26.89
2018-09-18T10:52:44.365Z,26.93
2018-09-18T10:55:12.631Z,26.90
2018-09-18T10:57:40.943Z,27.02
2018-09-18T11:00:09.272Z,27.37
2018-09-18T11:02:37.563Z,27.19
2018-09-18T11:05:05.882Z,27.23
2018-09-18T11:07:34.234Z,27.28
2018-09-18T11:10:02.550Z,27.10
2018-09-18T11:12:30.862Z,27.01
2018-09-18T11:14:59.136Z,26.66
2018-09-18T11:17:27.442Z,26.49
2018-09-18T11:19:55.789Z,26.81
2018-09-18T11:22:24.069Z,27.07
2018-09-18T11:24:52.392Z,27.22
2018-09-18T11:27:20.662Z,27.45
2018-09-18T11:29:48.959Z,27.49
2018-09-18T11:32:17.247Z,27.47
2018-09-18T11:34:45.567Z,27.27
2018-09-18T11:37:13.939Z,27.56
2018-09-18T11:39:42.222Z,27.71
2018-09-18T11:42:10.534Z,27.70
2018-09-18T11:44:38.834Z,27.67
2018-09-18T11:47:07.130Z,27.63
2018-09-18T11:49:35.445Z,27.39
2018-09-18T11:52:03.759Z,27.27
2018-09-18T11:54:32.155Z,27.18
2018-09-18T11:57:00.535Z,27.37
2018-09-18T11:59:28.812Z,27.61
2018-09-18T12:01:57.103Z,27.96
2018-09-18T12:04:25.435Z,28.15
2018-09-18T12:06:53.707Z,28.20
2018-09-18T12:09:22.015Z,28.05
2018-09-18T12:11:50.322Z,27.91
2018-09-18T12:14:18.621Z,27.63
2018-09-18T12:16:46.920Z,27.49
2018-09-18T12:19:15.234Z,27.34
2018-09-18T12:21:43.526Z,27.34
2018-09-18T12:24:11.827Z,27.59
2018-09-18T12:26:40.139Z,27.63
2018-09-18T12:29:08.434Z,27.56
2018-09-18T12:31:36.736Z,27.88
2018-09-18T12:34:05.043Z,27.87
2018-09-18T12:36:33.346Z,27.91
2018-09-18T12:39:01.660Z,28.05
2018-09-18T12:41:30.055Z,27.80
2018-09-18T12:43:58.268Z,27.88
2018-09-18T12:46:26.567Z,27.85
2018-09-18T12:48:54.898Z,28.07
2018-09-18T12:51:23.189Z,28.18
2018-09-18T12:53:51.536Z,28.29
2018-09-18T12:56:19.810Z,28.65
2018-09-18T12:58:48.122Z,28.74
2018-09-18T13:01:16.431Z,28.77
2018-09-18T13:03:44.739Z,28.95
2018-09-18T13:06:13.165Z,28.94
2018-09-18T13:08:41.339Z,28.96
2018-09-18T13:11:09.655Z,28.70
2018-09-18T13:13:38.021Z,28.78
2018-09-18T13:16:06.266Z,28.55
2018-09-18T13:18:34.578Z,28.46
2018-09-18T13:21:02.955Z,28.33
2018-09-18T13:23:31.338Z,28.60
2018-09-18T13:25:59.638Z,28.47
2018-09-18T13:28:27.936Z,28.19
2018-09-18T13:30:56.234Z,28.35
2018-09-18T13:33:24.542Z,28.48
2018-09-18T13:35:52.839Z,28.40
2018-09-18T13:38:21.150Z,28.37
2018-09-18T13:40:49.507Z,28.28
2018-09-18T13:43:17.758Z,27.97
2018-09-18T13:45:46.093Z,27.95
2018-09-18T13:48:14.399Z,27.74
2018-09-18T13:50:42.698Z,27.76
2018-09-18T13:53:11.003Z,27.75
2018-09-18T13:55:39.453Z,28.02
2018-09-18T13:58:07.635Z,28.17
2018-09-18T14:00:35.934Z,28.09
2018-09-18T14:03:04.241Z,28.13
2018-09-18T14:05:32.640Z,28.31
2018-09-18T14:08:00.848Z,28.19
2018-09-18T14:10:29.163Z,28.30
2018-09-18T14:12:57.467Z,28.16
2018-09-18T14:15:25.767Z,28.35
2018-09-18T14:17:54.083Z,28.38
2018-09-18T14:20:22.476Z,28.49
2018-09-18T14:22:50.678Z,28.62
2018-09-18T14:25:18.995Z,28.51
2018-09-18T14:27:47.294Z,28.59
2018-09-18T14:30:15.592Z,28.60
2018-09-18T14:32:43.916Z,28.66
2018-09-18T14:35:12.212Z,28.72
2018-09-18T14:37:40.509Z,28.78
2018-09-18T14:40:08.828Z,28.57
2018-09-18T14:42:37.271Z,28.61
2018-09-18T14:45:05.574Z,28.46
2018-09-18T14:47:33.886Z,28.79
2018-09-18T14:50:02.901Z,28.65
2018-09-18T14:52:31.184Z,28.81
2018-09-18T14:54:59.498Z,28.81
2018-09-18T14:57:27.795Z,28.86
2018-09-18T14:59:56.110Z,29.01
2018-09-18T15:02:24.406Z,28.77
2018-09-18T15:04:52.752Z,28.73
2018-09-18T15:07:21.027Z,28.71
2018-09-18T15:09:49.311Z,28.59
2018-09-18T15:12:17.608Z,28.35
2018-09-18T15:14:45.988Z,28.06
2018-09-18T15:17:14.214Z,27.94
2018-09-18T15:19:42.516Z,27.79
2018-09-18T15:22:10.864Z,27.69
2018-09-18T15:24:39.146Z,27.49
2018-09-18T15:27:07.454Z,27.51
2018-09-18T15:29:35.747Z,27.41
2018-09-18T15:32:04.064Z,27.39
2018-09-18T15:34:32.355Z,27.26
2018-09-18T15:37:00.651Z,27.13
2018-09-18T15:39:29.047Z,27.12
2018-09-18T15:41:57.290Z,27.04
2018-09-18T15:44:25.586Z,26.99
2018-09-18T15:46:53.899Z,26.98
2018-09-18T15:49:22.190Z,27.00
2018-09-18T15:51:50.523Z,26.85
2018-09-18T15:54:18.804Z,26.78
2018-09-18T15:56:47.098Z,26.71
2018-09-18T15:59:15.594Z,26.76
2018-09-18T16:01:45.508Z,26.83
2018-09-18T16:04:13.809Z,26.82
2018-09-18T16:06:42.118Z,26.69
2018-09-18T16:09:10.467Z,26.62
2018-09-18T16:11:38.782Z,26.40
2018-09-18T16:14:07.077Z,26.31
2018-09-18T16:16:35.438Z,26.39
2018-09-18T16:19:03.738Z,26.37
2018-09-18T16:21:32.027Z,26.22
2018-09-18T16:24:00.342Z,26.17
2018-09-18T16:26:28.641Z,26.22
2018-09-18T16:28:56.959Z,26.15
2018-09-18T16:31:25.249Z,26.24
2018-09-18T16:33:53.542Z,26.03
2018-09-18T16:36:21.850Z,25.84
2018-09-18T16:38:50.150Z,25.78
2018-09-18T16:41:18.470Z,25.95
2018-09-18T16:43:46.812Z,25.91
2018-09-18T16:46:15.082Z,25.85
2018-09-18T16:48:43.496Z,25.88
2018-09-18T16:51:11.700Z,25.87
2018-09-18T16:53:40.014Z,25.56
2018-09-18T16:56:08.310Z,25.34
2018-09-18T16:58:36.686Z,25.15
2018-09-18T17:01:04.914Z,25.02
2018-09-18T17:03:33.244Z,24.94
2018-09-18T17:06:01.553Z,24.84
2018-09-18T17:08:29.859Z,24.73
2018-09-18T17:10:59.479Z,25.05
2018-09-18T17:13:27.894Z,25.02
2018-09-18T17:15:56.095Z,25.04
2018-09-18T17:18:24.788Z,24.93
2018-09-18T17:20:53.055Z,24.92
2018-09-18T17:23:21.369Z,24.99
2018-09-18T17:25:49.655Z,24.91
2018-09-18T17:28:18.028Z,24.82
2018-09-18T17:30:46.287Z,24.63
2018-09-18T17:33:14.685Z,24.62
2018-09-18T17:35:42.979Z,24.51
2018-09-18T17:38:11.242Z,24.61
2018-09-18T17:40:39.554Z,24.51
2018-09-18T17:43:07.845Z,24.34
2018-09-18T17:45:36.143Z,24.32
2018-09-18T17:48:04.480Z,24.48
2018-09-18T17:50:32.780Z,24.41
2018-09-18T17:53:01.083Z,24.51
2018-09-18T17:55:29.383Z,24.26
2018-09-18T17:57:57.703Z,24.09
2018-09-18T18:00:26.010Z,24.05
2018-09-18T18:02:54.306Z,24.09
2018-09-18T18:05:22.646Z,23.93
2018-09-18T18:07:50.895Z,23.88
2018-09-18T18:10:19.202Z,23.84
2018-09-18T18:12:47.494Z,23.71
2018-09-18T18:15:15.807Z,23.83
2018-09-18T18:17:44.113Z,23.70
2018-09-18T18:20:12.460Z,23.52
2018-09-18T18:22:40.707Z,23.39
2018-09-18T18:25:09.007Z,23.31
2018-09-18T18:27:37.318Z,23.28
2018-09-18T18:30:05.606Z,23.28
2018-09-18T18:32:33.925Z,23.34
2018-09-18T18:35:02.218Z,23.52
2018-09-18T18:37:30.515Z,23.49
2018-09-18T18:39:58.836Z,23.38
2018-09-18T18:42:27.126Z,23.24
2018-09-18T18:45:01.562Z,23.18
2018-09-18T18:47:29.961Z,23.03
2018-09-18T18:49:58.188Z,22.99
2018-09-18T18:52:26.484Z,23.04
2018-09-18T18:54:54.778Z,22.99
2018-09-18T18:57:23.090Z,23.09
2018-09-18T18:59:51.390Z,23.02
2018-09-18T19:02:19.702Z,23.01
2018-09-18T19:04:48.008Z,23.01
2018-09-18T19:07:16.349Z,23.11
2018-09-18T19:09:44.643Z,23.07
2018-09-18T19:12:12.966Z,22.93
2018-09-18T19:14:41.253Z,22.91
2018-09-18T19:17:09.555Z,22.79
2018-09-18T19:19:37.872Z,22.74
2018-09-18T19:22:06.165Z,22.85
2018-09-18T19:24:34.485Z,22.82
2018-09-18T19:27:02.788Z,22.83
2018-09-18T19:29:31.106Z,22.70
2018-09-18T19:31:59.576Z,22.61
2018-09-18T19:34:27.884Z,22.50
2018-09-18T19:36:56.179Z,22.40
2018-09-18T19:39:24.475Z,22.28
2018-09-18T19:41:52.783Z,22.16
2018-09-18T19:44:59.389Z,22.03
2018-09-18T19:47:27.725Z,22.14
2018-09-18T19:49:56.019Z,21.93
2018-09-18T19:52:24.413Z,22.06
2018-09-18T19:54:52.615Z,22.01
2018-09-18T19:57:22.095Z,21.96
2018-09-18T19:59:50.419Z,21.91
2018-09-18T20:02:18.710Z,21.93
2018-09-18T20:04:47.010Z,21.88
2018-09-18T20:07:15.311Z,21.76
2018-09-18T20:09:43.624Z,21.71
2018-09-18T20:12:12.330Z,21.77
2018-09-18T20:14:40.644Z,21.94
2018-09-18T20:17:08.934Z,21.75
2018-09-18T20:19:37.243Z,21.61
2018-09-18T20:22:05.530Z,21.46
2018-09-18T20:24:33.835Z,21.42
2018-09-18T20:27:02.131Z,21.32
2018-09-18T20:29:30.512Z,21.30
2018-09-18T20:31:58.814Z,21.28
2018-09-18T20:34:27.177Z,21.32
2018-09-18T20:36:55.481Z,21.26
2018-09-18T20:39:23.789Z,21.34
2018-09-18T20:41:52.126Z,21.29
2018-09-18T20:44:20.406Z,21.21
2018-09-18T20:46:48.739Z,21.16
2018-09-18T20:49:17.059Z,21.13
2018-09-18T20:51:46.261Z,21.18
2018-09-18T20:54:14.571Z,21.17
2018-09-18T20:56:42.864Z,21.23
2018-09-18T20:59:11.178Z,21.11
2018-09-18T21:01:39.480Z,21.25
2018-09-18T21:04:07.796Z,21.39
2018-09-18T21:06:36.100Z,21.47
2018-09-18T21:09:04.406Z,21.38
2018-09-18T21:11:32.714Z,21.50
2018-09-18T21:14:01.027Z,21.29
2018-09-18T21:16:29.346Z,21.21
2018-09-18T21:18:57.647Z,21.27
2018-09-18T21:21:25.976Z,21.22
2018-09-18T21:23:54.281Z,21.27
2018-09-18T21:26:22.575Z,21.08
2018-09-18T21:28:50.889Z,20.99
2018-09-18T21:31:19.207Z,21.04
2018-09-18T21:33:47.518Z,21.14
2018-09-18T21:36:15.821Z,21.02
2018-09-18T21:38:44.154Z,20.97
2018-09-18T21:41:12.444Z,20.78
2018-09-18T21:43:40.757Z,20.74
2018-09-18T21:46:09.063Z,20.72
2018-09-18T21:48:37.388Z,20.79
2018-09-18T21:51:05.754Z,20.71
2018-09-18T21:53:34.064Z,20.71
2018-09-18T21:56:02.382Z,20.95
2018-09-18T21:58:30.682Z,20.67
2018-09-18T22:00:58.990Z,20.77
2018-09-18T22:03:27.324Z,20.79
2018-09-18T22:05:55.666Z,20.99
2018-09-18T22:08:23.990Z,20.83
2018-09-18T22:10:52.295Z,20.70
2018-09-18T22:13:20.611Z,20.71
2018-09-18T22:15:48.919Z,20.68
2018-09-18T22:18:17.254Z,20.71
2018-09-18T22:20:45.571Z,20.62
2018-09-18T22:23:13.922Z,20.48
2018-09-18T22:25:42.245Z,20.54
2018-09-18T22:28:10.565Z,20.54
2018-09-18T22:30:38.888Z,20.62
2018-09-18T22:33:07.199Z,20.62
2018-09-18T22:35:35.508Z,20.55
2018-09-18T22:38:03.821Z,20.42
2018-09-18T22:40:32.125Z,20.52
2018-09-18T22:43:00.479Z,20.58
2018-09-18T22:45:28.759Z,20.49
2018-09-18T22:47:57.074Z,20.55
2018-09-18T22:50:25.375Z,20.26
2018-09-18T22:52:53.683Z,20.26
2018-09-18T22:55:22.005Z,20.31
2018-09-18T22:57:50.306Z,20.24
2018-09-18T23:00:18.622Z,20.18
2018-09-18T23:02:46.938Z,20.04
2018-09-18T23:05:15.259Z,20.06
2018-09-18T23:07:43.566Z,20.05
2018-09-18T23:10:11.871Z,19.99
2018-09-18T23:12:40.199Z,19.79
2018-09-18T23:15:08.524Z,19.57
2018-09-18T23:17:36.840Z,19.64
2018-09-18T23:20:05.150Z,19.73
2018-09-18T23:22:33.473Z,19.61
2018-09-18T23:25:01.784Z,19.52
2018-09-18T23:27:30.095Z,19.53
2018-09-18T23:29:58.415Z,19.54
2018-09-18T23:32:26.744Z,19.49
2018-09-18T23:34:55.058Z,19.47
2018-09-18T23:37:23.365Z,19.40
2018-09-18T23:39:51.683Z,19.29
2018-09-18T23:42:20.137Z,19.30
2018-09-18T23:44:48.301Z,19.22
2018-09-18T23:47:16.619Z,19.09
2018-09-18T23:49:44.926Z,18.99
2018-09-18T23:52:13.257Z,19.00
2018-09-18T23:54:41.554Z,19.04
2018-09-18T23:57:09.862Z,19.04
2018-09-18T23:59:38.184Z,18.85
